Time;durP1;ratioP1;P1;durP2;ratioP2;P2;SDS_P1;SDS_P2;PMS_P1;PMS_P2;Temp;Humidity;BMP_temperature;BMP_pressure;BME280_temperature;BME280_humidity;BME280_pressure;Samples;Min_cycle;Max_cycle;Signal;HPM_P1;HPM_P2
2022/02/07 00:00:17;;;;;;;;;1.00;0.00;;;;;8.58;74.27;100978.09;5092488;27;46669;-76
2022/02/07 00:05:26;;;;;;;;;0.00;0.00;;;;;8.79;73.98;101041.97;5091774;27;46736;-80
2022/02/07 00:07:53;;;;;;;;;0.00;0.00;;;;;8.80;74.31;101048.09;5086876;27;45675;-78
2022/02/07 00:10:19;;;;;;;;;1.00;1.00;;;;;8.58;74.21;101029.59;5090158;27;45445;-77
2022/02/07 00:12:47;;;;;;;;;1.00;1.00;;;;;8.69;74.05;101067.66;5093837;27;45408;-77
2022/02/07 00:15:14;;;;;;;;;2.00;1.00;;;;;9.20;74.01;101166.19;5090944;27;46373;-78
2022/02/07 00:17:40;;;;;;;;;0.75;0.75;;;;;9.18;74.25;101170.50;5093329;27;45729;-83
2022/02/07 00:20:11;;;;;;;;;0.75;0.75;;;;;8.18;73.76;101011.97;5099281;27;45383;-77
2022/02/07 00:22:36;;;;;;;;;1.00;1.00;;;;;8.57;73.79;101077.56;5098243;27;46348;-80
2022/02/07 00:25:03;;;;;;;;;0.50;0.50;;;;;8.48;73.58;101072.78;5099515;27;46683;-77
2022/02/07 00:27:28;;;;;;;;;0.50;0.50;;;;;8.52;73.64;101056.38;5096196;27;46337;-82
2022/02/07 00:29:53;;;;;;;;;2.75;2.00;;;;;8.59;73.56;101076.81;5094829;27;45364;-80
2022/02/07 00:32:19;;;;;;;;;2.25;1.50;;;;;8.54;73.82;101065.22;5095690;27;45818;-77
2022/02/07 00:34:44;;;;;;;;;2.25;0.75;;;;;9.07;73.43;101163.84;5086548;27;46122;-76
2022/02/07 00:37:09;;;;;;;;;1.00;1.00;;;;;9.16;73.65;101201.00;5096938;27;45749;-79
2022/02/07 00:40:02;;;;;;;;;1.00;1.00;;;;;8.69;73.56;101122.69;5096842;27;45260;-78
2022/02/07 00:42:33;;;;;;;;;0.50;0.25;;;;;8.72;73.65;101122.84;5086783;27;45416;-80
2022/02/07 00:45:03;;;;;;;;;1.00;0.00;;;;;9.07;73.41;101190.06;5097897;27;45307;-79
2022/02/07 00:47:28;;;;;;;;;0.75;0.75;;;;;8.55;73.31;101105.41;5090402;27;45464;-79
2022/02/07 00:49:55;;;;;;;;;1.00;1.00;;;;;8.80;73.26;101160.78;5087436;27;45474;-79
2022/02/07 00:52:23;;;;;;;;;1.00;0.00;;;;;8.75;73.38;101171.06;5089894;27;46248;-77
2022/02/07 00:54:49;;;;;;;;;1.00;1.00;;;;;8.44;73.14;101136.31;5091588;27;45592;-77
2022/02/07 00:57:15;;;;;;;;;1.00;1.00;;;;;8.35;73.08;101144.59;5087761;27;45698;-76
2022/02/07 00:59:40;;;;;;;;;0.50;0.00;;;;;8.42;72.80;101175.56;5090543;27;45157;-78
2022/02/07 01:02:05;;;;;;;;;1.00;1.00;;;;;8.20;73.31;101142.09;5087581;27;46421;-76
2022/02/07 01:04:31;;;;;;;;;0.75;0.00;;;;;8.72;73.12;101232.91;5096174;27;45929;-76
2022/02/07 01:06:56;;;;;;;;;1.25;0.00;;;;;8.53;72.84;101213.66;5090044;27;45511;-76
2022/02/07 01:09:27;;;;;;;;;1.00;1.00;;;;;8.71;73.00;101241.56;5087835;27;45171;-82
2022/02/07 01:12:26;;;;;;;;;1.00;1.00;;;;;8.10;73.21;101158.16;5088602;27;47942;-77
2022/02/07 01:57:30;;;;;;;;;0.00;0.00;;;;;7.83;69.00;101360.84;5101894;27;45240;-78
2022/02/07 01:59:57;;;;;;;;;1.50;0.50;;;;;7.57;68.09;101328.00;5094602;27;46295;-78
2022/02/07 02:02:22;;;;;;;;;1.00;1.00;;;;;7.65;68.04;101351.16;5096281;27;45310;-79
2022/02/07 02:04:48;;;;;;;;;0.00;0.00;;;;;7.41;67.93;101315.78;5087556;27;47091;-80
2022/02/07 02:07:13;;;;;;;;;1.50;0.75;;;;;7.99;67.26;101426.31;5095650;27;46272;-82
2022/02/07 02:09:39;;;;;;;;;0.00;0.00;;;;;7.53;67.71;101339.09;5100786;27;45162;-76
2022/02/07 02:12:06;;;;;;;;;1.00;0.25;;;;;7.56;67.22;101371.56;5104583;27;45100;-77
2022/02/07 02:22:43;;;;;;;;;2.25;1.00;;;;;7.91;67.86;101466.88;5096619;27;45107;-77
2022/02/07 02:46:46;;;;;;;;;1.00;1.00;;;;;7.85;67.42;101534.56;5088860;27;45814;-78
2022/02/07 02:49:12;;;;;;;;;3.50;2.00;;;;;7.43;67.32;101481.53;5088307;27;45886;-77
2022/02/07 02:51:37;;;;;;;;;1.00;1.00;;;;;7.84;67.70;101578.16;5083627;27;45509;-76
2022/02/07 02:54:05;;;;;;;;;1.00;1.00;;;;;7.40;66.99;101504.91;5087081;27;45459;-78
2022/02/07 02:56:31;;;;;;;;;1.00;0.00;;;;;7.03;66.63;101458.22;5086903;27;45778;-77
2022/02/07 02:58:57;;;;;;;;;1.00;1.00;;;;;7.10;66.74;101476.09;5089356;27;46788;-77
2022/02/07 03:01:22;;;;;;;;;2.00;0.00;;;;;7.05;66.75;101471.41;5087908;27;45533;-79
2022/02/07 03:03:47;;;;;;;;;0.75;0.75;;;;;7.74;66.74;101592.41;5088202;27;45579;-77
2022/02/07 03:06:14;;;;;;;;;1.75;1.00;;;;;7.36;66.74;101524.72;5086779;27;46526;-76
2022/02/07 03:08:39;;;;;;;;;1.00;1.00;;;;;7.28;66.36;101507.66;5087448;27;45578;-76
2022/02/07 03:11:11;;;;;;;;;1.00;0.00;;;;;7.03;66.62;101478.25;5087250;27;45475;-76
2022/02/07 03:17:01;;;;;;;;;1.00;1.00;;;;;6.91;66.11;101462.75;5086795;27;45692;-79
2022/02/07 03:19:03;;;;;;;;;1.00;1.00;;;;;7.72;66.69;101606.19;5091306;27;46750;-77
2022/02/07 03:21:28;;;;;;;;;1.00;1.00;;;;;7.01;66.91;101488.63;5087051;27;45404;-78
2022/02/07 03:23:53;;;;;;;;;1.50;0.50;;;;;7.16;66.33;101514.78;5089112;27;45648;-76
2022/02/07 03:26:20;;;;;;;;;0.50;0.50;;;;;7.62;66.63;101593.38;5094528;27;47813;-82
2022/02/07 03:28:48;;;;;;;;;2.00;1.25;;;;;7.11;66.29;101529.28;5089819;27;45442;-82
2022/02/07 03:31:15;;;;;;;;;0.00;0.00;;;;;7.20;66.89;101551.66;5093409;27;45458;-77
2022/02/07 03:33:41;;;;;;;;;1.00;1.00;;;;;6.70;66.61;101476.31;5088363;27;45312;-76
2022/02/07 03:36:06;;;;;;;;;1.00;1.00;;;;;6.87;67.02;101519.13;5089111;27;45782;-76
2022/02/07 03:38:31;;;;;;;;;2.00;1.25;;;;;7.37;66.28;101602.34;5096982;27;46281;-77
2022/02/07 03:40:57;;;;;;;;;1.25;1.00;;;;;7.10;66.47;101569.31;5089979;27;46131;-76
2022/02/07 03:43:23;;;;;;;;;2.33;1.00;;;;;6.73;66.44;101509.53;5091123;27;45729;-76
2022/02/07 03:45:48;;;;;;;;;0.75;0.25;;;;;6.81;66.21;101557.94;5086483;27;45896;-77
2022/02/07 03:48:14;;;;;;;;;2.00;2.00;;;;;6.93;66.44;101576.09;5088299;27;45427;-76
2022/02/07 03:50:39;;;;;;;;;1.00;0.25;;;;;7.28;66.58;101645.34;5093413;27;45522;-76
2022/02/07 03:53:04;;;;;;;;;1.00;0.67;;;;;7.45;66.38;101683.91;5101137;27;45363;-79
2022/02/07 03:55:31;;;;;;;;;2.00;1.00;;;;;7.46;66.88;101693.56;5091225;27;46827;-81
2022/02/07 03:57:56;;;;;;;;;2.00;1.00;;;;;6.60;66.43;101552.28;5088287;27;45486;-76
2022/02/07 04:00:22;;;;;;;;;1.75;1.00;;;;;7.03;66.60;101630.72;5092239;27;45434;-75
2022/02/07 04:02:51;;;;;;;;;1.00;1.00;;;;;6.56;66.41;101552.88;5089800;27;45647;-77
2022/02/07 04:07:42;;;;;;;;;2.00;1.00;;;;;6.62;66.47;101578.50;5093409;27;45801;-79
2022/02/07 04:10:07;;;;;;;;;0.00;0.00;;;;;6.72;66.28;101589.59;5091192;27;45721;-75
2022/02/07 04:12:33;;;;;;;;;2.00;1.00;;;;;6.70;66.36;101608.63;5088705;27;46054;-76
2022/02/07 04:14:59;;;;;;;;;0.25;0.00;;;;;7.11;67.05;101670.44;5090176;27;46194;-77
2022/02/07 04:17:27;;;;;;;;;2.00;1.00;;;;;6.75;67.10;101619.34;5107997;27;45680;-76
2022/02/07 04:19:58;;;;;;;;;1.75;0.75;;;;;6.71;66.72;101632.22;5096509;27;45473;-78
2022/02/07 04:22:25;;;;;;;;;1.00;0.00;;;;;6.75;66.92;101674.19;5093096;27;45217;-77
2022/02/07 04:24:51;;;;;;;;;2.00;1.75;;;;;6.73;67.55;101663.66;5090696;27;45531;-78
2022/02/07 04:27:16;;;;;;;;;0.25;0.25;;;;;6.83;67.68;101688.66;5089010;27;45394;-78
2022/02/07 04:29:41;;;;;;;;;0.75;0.75;;;;;7.14;67.90;101768.28;5089533;27;45839;-76
2022/02/07 04:32:08;;;;;;;;;2.00;2.00;;;;;6.69;67.85;101679.94;5091966;27;45547;-76
2022/02/07 04:34:33;;;;;;;;;2.00;1.00;;;;;6.80;67.50;101727.66;5096815;27;46659;-78
2022/02/07 04:36:59;;;;;;;;;1.00;1.00;;;;;6.29;67.87;101652.91;5107606;27;45398;-76
2022/02/07 04:39:24;;;;;;;;;2.00;0.00;;;;;6.65;67.77;101710.19;5092682;27;45556;-77
2022/02/07 04:41:52;;;;;;;;;2.00;2.00;;;;;6.26;68.04;101661.47;5094254;27;45231;-76
2022/02/07 04:44:23;;;;;;;;;0.75;0.75;;;;;6.30;67.55;101671.28;5087648;27;46451;-77
2022/02/07 04:47:44;;;;;;;;;2.50;2.50;;;;;6.95;67.60;101802.75;5092701;27;45916;-76
2022/02/07 05:00:09;;;;;;;;;1.50;1.00;;;;;5.87;68.15;101630.97;5103860;27;45180;-84
2022/02/07 05:15:52;;;;;;;;;2.25;1.50;;;;;6.24;69.07;101766.56;5102963;27;45550;-81
2022/02/07 05:18:20;;;;;;;;;1.50;1.00;;;;;5.86;68.99;101710.94;5097048;27;45725;-86
2022/02/07 05:20:45;;;;;;;;;1.00;0.00;;;;;5.82;68.97;101708.91;5107257;27;45745;-85
2022/02/07 05:23:11;;;;;;;;;1.25;1.25;;;;;6.40;69.14;101826.84;5091431;27;45590;-79
2022/02/07 05:25:36;;;;;;;;;3.50;1.75;;;;;6.02;69.10;101756.38;5099838;27;45528;-80
2022/02/07 05:28:01;;;;;;;;;0.75;0.00;;;;;6.51;69.68;101846.78;5109678;27;45650;-83
2022/02/07 05:30:27;;;;;;;;;0.75;0.75;;;;;6.19;69.23;101808.91;5089295;27;45524;-87
2022/02/07 05:32:52;;;;;;;;;1.00;0.75;;;;;6.40;69.48;101842.50;5102620;27;45400;-76
2022/02/07 05:35:18;;;;;;;;;1.50;1.50;;;;;6.06;69.22;101782.78;5094790;27;45871;-79
2022/02/07 05:37:43;;;;;;;;;2.00;1.50;;;;;6.04;69.20;101784.38;5095453;27;45362;-77
2022/02/07 05:40:16;;;;;;;;;3.75;1.75;;;;;5.70;69.54;101747.16;5092576;27;45392;-77
2022/02/07 05:42:42;;;;;;;;;1.00;1.00;;;;;5.70;69.44;101736.72;5094458;27;45534;-77
2022/02/07 05:45:08;;;;;;;;;1.00;1.00;;;;;5.78;69.12;101766.88;5094809;27;46282;-77
2022/02/07 05:47:34;;;;;;;;;1.50;1.00;;;;;6.35;69.21;101878.75;5094898;27;45547;-78
2022/02/07 05:50:00;;;;;;;;;2.25;1.00;;;;;5.73;69.57;101760.44;5094980;27;45714;-78
2022/02/07 05:52:26;;;;;;;;;4.00;2.75;;;;;5.75;69.28;101784.00;5095078;27;45534;-76
2022/02/07 05:54:53;;;;;;;;;1.00;1.00;;;;;6.16;69.45;101849.59;5094820;27;46277;-76
2022/02/07 05:57:18;;;;;;;;;0.50;0.00;;;;;5.91;69.22;101815.56;5095247;27;45413;-79
2022/02/07 05:59:44;;;;;;;;;3.00;1.75;;;;;5.67;69.09;101765.22;5094449;27;45482;-80
2022/02/07 06:02:09;;;;;;;;;2.25;1.00;;;;;5.88;69.39;101818.00;5091838;27;45521;-83
2022/02/07 06:04:35;;;;;;;;;0.75;0.75;;;;;5.79;69.13;101797.38;5103431;27;46131;-76
2022/02/07 06:07:00;;;;;;;;;0.75;0.75;;;;;5.67;69.08;101762.63;5112620;27;45118;-77
2022/02/07 06:09:25;;;;;;;;;2.00;1.00;;;;;6.28;68.90;101880.84;5112796;27;45176;-78
2022/02/07 06:11:55;;;;;;;;;0.25;0.25;;;;;6.24;68.91;101877.09;5112565;27;45325;-77
2022/02/07 06:14:20;;;;;;;;;0.25;0.25;;;;;6.29;69.41;101886.16;5112543;27;45929;-75
2022/02/07 06:16:46;;;;;;;;;2.00;1.00;;;;;5.86;69.40;101819.56;5112482;27;45170;-76
2022/02/07 06:19:11;;;;;;;;;3.00;2.00;;;;;5.63;69.50;101791.88;5112165;27;45094;-77
2022/02/07 06:21:38;;;;;;;;;1.00;1.00;;;;;6.03;69.22;101868.69;5113234;27;45125;-85
2022/02/07 06:24:04;;;;;;;;;2.25;2.00;;;;;6.32;69.29;101912.50;5112740;27;45602;-85
2022/02/07 06:26:30;;;;;;;;;2.25;2.00;;;;;6.27;69.23;101902.53;5112510;27;45164;-84
2022/02/07 06:28:56;;;;;;;;;2.25;2.25;;;;;6.07;69.63;101872.41;5105994;27;45153;-78
2022/02/07 06:31:22;;;;;;;;;2.00;2.00;;;;;6.17;69.71;101896.66;5092094;27;45760;-76
2022/02/07 06:33:47;;;;;;;;;4.00;2.50;;;;;5.77;69.74;101839.81;5095104;27;45544;-86
2022/02/07 06:36:13;;;;;;;;;3.00;2.00;;;;;5.35;69.53;101762.91;5095445;27;45539;-88
2022/02/07 06:38:39;;;;;;;;;2.75;2.50;;;;;5.58;69.27;101807.19;5095418;27;45532;-84
2022/02/07 06:41:04;;;;;;;;;3.75;2.75;;;;;5.60;69.34;101826.44;5092025;27;45420;-81
2022/02/07 06:43:30;;;;;;;;;6.75;5.50;;;;;5.83;69.62;101874.16;5094210;27;46460;-75
2022/02/07 06:45:55;;;;;;;;;3.00;2.25;;;;;5.72;69.70;101846.41;5092978;27;45435;-75
2022/02/07 06:48:20;;;;;;;;;5.50;3.00;;;;;5.67;69.58;101866.94;5093709;27;45487;-75
2022/02/07 06:50:46;;;;;;;;;6.00;4.00;;;;;6.27;69.95;101965.19;5093339;27;45424;-76
2022/02/07 06:53:11;;;;;;;;;5.75;4.75;;;;;5.65;70.01;101871.13;5093930;27;46428;-78
2022/02/07 06:55:37;;;;;;;;;4.25;2.75;;;;;5.61;69.83;101880.41;5094899;27;45602;-82
2022/02/07 06:58:02;;;;;;;;;3.50;2.75;;;;;6.05;69.73;101952.28;5099772;27;45534;-82
2022/02/07 07:00:27;;;;;;;;;6.00;4.25;;;;;5.66;70.20;101902.53;5104954;27;45069;-75
2022/02/07 07:02:53;;;;;;;;;5.25;5.25;;;;;6.19;70.09;102017.75;5099911;27;45949;-80
2022/02/07 07:05:22;;;;;;;;;3.00;3.00;;;;;5.41;70.13;101880.66;5100156;27;44961;-76
2022/02/07 07:07:48;;;;;;;;;4.75;3.75;;;;;5.49;70.25;101904.69;5112888;27;45330;-83
2022/02/07 07:10:14;;;;;;;;;5.25;4.25;;;;;5.95;70.59;101988.16;5112586;27;45063;-76
2022/02/07 07:12:42;;;;;;;;;3.50;2.75;;;;;5.61;70.91;101939.50;5110992;27;46032;-76
2022/02/07 07:15:14;;;;;;;;;6.00;5.00;;;;;5.21;70.58;101880.91;5112321;27;44977;-85
2022/02/07 07:17:39;;;;;;;;;7.75;6.00;;;;;5.92;71.16;102007.91;5111438;27;45894;-86
2022/02/07 07:20:08;;;;;;;;;7.50;6.50;;;;;5.76;71.12;101989.25;5112622;27;45092;-86
2022/02/07 07:22:34;;;;;;;;;6.50;5.00;;;;;5.89;71.05;102013.78;5112406;27;46036;-75
2022/02/07 07:25:00;;;;;;;;;5.50;5.50;;;;;5.48;71.00;101945.53;5112434;27;45036;-89
2022/02/07 07:27:30;;;;;;;;;10.00;7.00;;;;;5.72;71.52;102001.19;5112667;27;45142;-79
2022/02/07 07:29:56;;;;;;;;;7.50;6.00;;;;;5.15;71.44;101913.53;5111702;27;45067;-89
2022/02/07 07:32:25;;;;;;;;;7.00;7.00;;;;;5.81;71.39;102055.72;5112533;27;45652;-77
2022/02/07 07:34:51;;;;;;;;;6.75;6.00;;;;;5.16;71.34;101945.69;5112390;27;45429;-81
2022/02/07 07:37:17;;;;;;;;;6.25;6.00;;;;;5.52;71.49;101999.72;5102433;27;45541;-76
2022/02/07 07:39:42;;;;;;;;;14.75;11.25;;;;;5.37;71.86;101993.34;5093420;27;45460;-76
2022/02/07 07:42:08;;;;;;;;;8.00;7.50;;;;;5.56;71.51;102014.78;5093658;27;46194;-78
2022/02/07 07:44:36;;;;;;;;;3.00;2.25;;;;;5.91;71.69;102077.47;5108802;27;45138;-83
2022/02/07 07:47:09;;;;;;;;;6.50;5.25;;;;;5.98;71.93;102094.47;5112116;27;45080;-89
2022/02/07 07:49:46;;;;;;;;;6.25;5.00;;;;;5.25;71.72;101988.09;5110389;27;45254;-83
2022/02/07 07:52:15;;;;;;;;;6.00;5.00;;;;;5.48;71.92;102022.84;5112535;27;45536;-76
2022/02/07 07:54:53;;;;;;;;;5.00;3.00;;;;;5.26;72.17;101995.13;5111402;27;45610;-77
2022/02/07 08:02:49;;;;;;;;;4.25;3.00;;;;;5.50;71.81;102014.31;5090527;28;45093;-80
2022/02/07 08:05:25;;;;;;;;;3.25;3.25;;;;;6.13;72.05;102126.03;5091035;27;45411;-76
2022/02/07 08:07:55;;;;;;;;;8.00;6.00;;;;;5.63;71.27;102035.31;5093730;27;45310;-85
2022/02/07 08:10:42;;;;;;;;;7.50;7.00;;;;;6.22;70.90;102117.97;5102311;27;45048;-75
2022/02/07 08:13:15;;;;;;;;;4.00;3.00;;;;;5.72;70.58;102045.53;5107406;27;46115;-76
2022/02/07 08:15:40;;;;;;;;;5.00;2.75;;;;;5.76;70.47;102038.81;5113340;27;45355;-76
2022/02/07 08:18:05;;;;;;;;;3.75;3.00;;;;;5.76;70.29;102025.78;5112883;27;45472;-75
2022/02/07 08:20:31;;;;;;;;;4.33;3.00;;;;;6.44;70.36;102143.16;5109850;27;45449;-77
2022/02/07 08:23:01;;;;;;;;;5.00;4.00;;;;;6.25;70.08;102121.69;5108544;27;45228;-75
2022/02/07 08:25:27;;;;;;;;;5.00;4.25;;;;;5.91;69.56;102064.41;5110611;27;45262;-76
2022/02/07 08:27:52;;;;;;;;;6.50;6.00;;;;;5.94;69.75;102068.94;5103808;27;45444;-76
2022/02/07 08:30:18;;;;;;;;;4.25;4.25;;;;;6.46;69.90;102145.91;5109670;27;45452;-75
2022/02/07 08:32:44;;;;;;;;;3.00;2.00;;;;;5.98;69.86;102067.47;5108699;27;45417;-76
2022/02/07 08:35:11;;;;;;;;;6.75;5.75;;;;;6.29;70.02;102121.13;5107790;27;45671;-76
2022/02/07 08:37:37;;;;;;;;;5.50;4.00;;;;;6.82;69.95;102212.06;5107628;27;45488;-75
2022/02/07 08:40:02;;;;;;;;;2.25;2.25;;;;;6.34;69.64;102127.59;5099569;27;45560;-76
2022/02/07 08:42:28;;;;;;;;;8.25;7.00;;;;;6.15;69.53;102090.50;5095294;27;46368;-75
2022/02/07 08:44:54;;;;;;;;;6.75;5.00;;;;;6.07;69.44;102084.72;5097153;27;45284;-76
2022/02/07 08:47:19;;;;;;;;;6.00;4.25;;;;;6.29;69.43;102130.66;5114313;27;45161;-76
2022/02/07 08:49:44;;;;;;;;;4.25;3.75;;;;;6.20;69.26;102118.75;5106167;27;45317;-75
2022/02/07 08:52:10;;;;;;;;;6.75;6.00;;;;;6.37;69.35;102129.53;5113924;27;45720;-76
2022/02/07 08:54:36;;;;;;;;;4.25;3.00;;;;;6.98;69.51;102231.59;5113549;27;45176;-76
2022/02/07 08:57:31;;;;;;;;;5.00;5.00;;;;;6.75;69.46;102197.66;5113998;27;45036;-75
2022/02/07 09:05:16;;;;;;;;;4.25;3.00;;;;;6.52;69.15;102155.88;5113397;27;45338;-77
2022/02/07 09:07:52;;;;;;;;;2.75;2.75;;;;;6.70;69.23;102183.34;5111298;27;45162;-75
2022/02/07 09:10:17;;;;;;;;;4.25;3.00;;;;;6.39;69.20;102136.69;5113421;27;44912;-76
2022/02/07 09:12:46;;;;;;;;;6.00;6.00;;;;;6.58;69.66;102164.16;5113662;27;45159;-76
2022/02/07 09:17:57;;;;;;;;;5.75;4.00;;;;;7.28;69.26;102267.69;5103422;27;46120;-76
2022/02/07 09:20:22;;;;;;;;;7.50;5.00;;;;;7.24;69.88;102254.41;5101825;27;45794;-77
2022/02/07 09:22:48;;;;;;;;;6.25;5.00;;;;;6.76;69.30;102173.34;5113460;27;45246;-76
2022/02/07 09:25:14;;;;;;;;;6.00;5.00;;;;;6.84;69.25;102174.78;5110228;27;45623;-76
2022/02/07 09:27:40;;;;;;;;;7.25;6.00;;;;;6.88;68.86;102173.31;5112202;27;45276;-75
2022/02/07 09:30:07;;;;;;;;;6.00;5.50;;;;;7.56;69.26;102286.28;5113090;27;45164;-75
2022/02/07 09:32:33;;;;;;;;;6.00;6.00;;;;;6.93;68.90;102182.38;5104762;27;45278;-78
2022/02/07 09:34:58;;;;;;;;;8.25;8.25;;;;;6.96;68.78;102180.00;5113303;27;44957;-75
2022/02/07 09:37:23;;;;;;;;;7.00;6.25;;;;;7.60;68.65;102285.69;5112117;27;45210;-75
2022/02/07 09:39:49;;;;;;;;;6.25;5.50;;;;;7.67;69.02;102291.47;5112644;27;44983;-75
2022/02/07 09:42:16;;;;;;;;;6.25;4.00;;;;;7.75;68.66;102311.25;5112648;27;45121;-75
2022/02/07 09:44:46;;;;;;;;;4.00;3.00;;;;;7.37;68.42;102240.47;5113170;27;45354;-75
2022/02/07 09:47:11;;;;;;;;;6.25;4.00;;;;;7.93;68.30;102339.50;5113439;27;45091;-76
2022/02/07 09:49:37;;;;;;;;;3.75;3.00;;;;;7.78;68.20;102318.38;5113231;27;45133;-76
2022/02/07 09:52:04;;;;;;;;;2.75;2.25;;;;;7.58;68.30;102279.44;5112697;27;45326;-76
2022/02/07 09:54:29;;;;;;;;;6.00;3.00;;;;;7.76;68.22;102310.44;5111484;27;44909;-76
2022/02/07 09:56:55;;;;;;;;;6.25;1.50;;;;;7.60;68.21;102256.91;5112668;27;44899;-75
2022/02/07 09:59:27;;;;;;;;;3.50;2.50;;;;;7.46;67.71;102214.09;5113283;27;45122;-76
2022/02/07 10:01:56;;;;;;;;;8.00;4.00;;;;;7.87;68.26;102281.50;5110975;27;45366;-76
2022/02/07 10:04:32;;;;;;;;;9.00;6.50;;;;;7.77;67.68;102264.22;5112929;27;45153;-75
2022/02/07 10:17:08;;;;;;;;;3.75;2.00;;;;;8.51;66.97;102361.94;5112291;27;45106;-76
2022/02/07 10:19:54;;;;;;;;;4.00;3.00;;;;;8.12;66.59;102298.09;5112970;27;45055;-76
2022/02/07 10:39:50;;;;;;;;;2.00;2.00;;;;;8.56;64.68;102309.84;5094609;27;45626;-75
2022/02/07 10:50:07;;;;;;;;;1.75;1.75;;;;;8.88;64.47;102320.78;5093743;27;45378;-76
2022/02/07 10:52:55;;;;;;;;;4.00;2.75;;;;;9.37;64.59;102386.09;5094018;27;45928;-75
2022/02/07 10:55:33;;;;;;;;;2.00;0.75;;;;;9.42;63.89;102397.78;5093664;27;45212;-76
2022/02/07 10:58:01;;;;;;;;;2.50;1.75;;;;;9.38;63.51;102401.91;5093411;27;45296;-75
2022/02/07 11:00:53;;;;;;;;;3.00;2.50;;;;;9.54;63.34;102428.34;5093889;27;45272;-76
2022/02/07 11:03:22;;;;;;;;;1.25;1.00;;;;;8.81;63.50;102283.56;5093911;27;45447;-76
2022/02/07 11:05:51;;;;;;;;;2.00;1.50;;;;;9.61;62.93;102413.94;5093676;27;45416;-76
2022/02/07 11:08:26;;;;;;;;;1.25;0.25;;;;;9.70;62.39;102427.63;5093661;27;45219;-75
2022/02/07 11:16:25;;;;;;;;;3.25;3.00;;;;;9.42;61.92;102372.44;5093394;27;45605;-75
2022/02/07 11:19:09;;;;;;;;;3.25;3.00;;;;;9.62;62.51;102400.00;5093650;27;45333;-76
2022/02/07 11:21:45;;;;;;;;;3.50;2.25;;;;;9.70;62.45;102398.75;5093878;27;45568;-76
2022/02/07 11:27:14;;;;;;;;;2.00;1.75;;;;;10.00;61.58;102409.41;5092858;27;45325;-75
2022/02/07 11:29:48;;;;;;;;;2.75;2.75;;;;;9.90;61.10;102336.09;5091743;27;45880;-76
2022/02/07 11:32:49;;;;;;;;;2.75;2.25;;;;;10.46;60.90;102413.22;5093163;27;45431;-75
2022/02/07 11:35:32;;;;;;;;;2.25;2.00;;;;;10.18;60.09;102358.00;5093278;27;45343;-76
2022/02/07 11:38:06;;;;;;;;;3.50;2.00;;;;;10.49;59.90;102417.75;5093426;27;45538;-76
2022/02/07 11:40:35;;;;;;;;;3.00;2.00;;;;;10.36;60.81;102400.34;5096958;27;45723;-76
2022/02/07 11:43:38;;;;;;;;;2.75;1.50;;;;;10.52;60.26;102432.00;5096603;27;45306;-76
2022/02/07 11:46:07;;;;;;;;;4.00;3.00;;;;;10.52;60.28;102436.34;5064346;27;45608;-75
2022/02/07 11:48:46;;;;;;;;;2.75;2.25;;;;;10.45;59.72;102419.31;5096645;27;45381;-75
2022/02/07 11:51:15;;;;;;;;;2.25;1.25;;;;;10.56;59.89;102441.00;5096469;27;45904;-75
2022/02/07 11:53:54;;;;;;;;;2.50;1.00;;;;;10.55;59.63;102432.22;5096677;27;45479;-75
2022/02/07 11:56:24;;;;;;;;;3.00;2.25;;;;;10.57;59.07;102427.94;5096393;27;45590;-76
2022/02/07 11:59:01;;;;;;;;;2.00;2.00;;;;;10.59;59.42;102430.69;5096794;27;46470;-75
2022/02/07 12:02:02;;;;;;;;;3.00;2.50;;;;;10.63;58.93;102432.66;5097098;27;45643;-75
2022/02/07 12:04:31;;;;;;;;;5.50;2.50;;;;;10.05;58.33;102348.50;5096631;27;45433;-76
2022/02/07 12:07:21;;;;;;;;;2.00;1.25;;;;;10.66;58.39;102435.50;5096639;27;45456;-75
2022/02/07 12:10:02;;;;;;;;;3.00;2.00;;;;;10.71;57.61;102444.56;5096302;27;45585;-76
2022/02/07 12:15:15;;;;;;;;;0.00;0.00;;;;;10.17;58.14;102305.38;5096522;27;45384;-75
2022/02/07 12:17:51;;;;;;;;;4.00;3.00;;;;;10.37;57.39;102332.91;5096519;27;45382;-75
2022/02/07 12:20:29;;;;;;;;;3.50;1.50;;;;;10.20;57.05;102305.59;5096489;27;46721;-76
2022/02/07 12:23:34;;;;;;;;;1.25;1.00;;;;;10.93;56.84;102430.97;5096541;27;45615;-75
2022/02/07 12:26:10;;;;;;;;;2.00;1.00;;;;;11.01;57.15;102420.94;5095331;27;45409;-76
2022/02/07 12:28:43;;;;;;;;;2.25;1.75;;;;;10.54;57.21;102329.56;5096140;27;45316;-76
2022/02/07 12:33:42;;;;;;;;;1.00;1.00;;;;;10.47;56.79;102298.47;5096087;27;45511;-75
2022/02/07 12:36:08;;;;;;;;;2.75;2.00;;;;;10.71;56.88;102328.88;5096109;27;45568;-76
2022/02/07 12:38:39;;;;;;;;;3.00;1.00;;;;;10.91;56.01;102348.44;5095901;27;45597;-76
2022/02/07 12:41:08;;;;;;;;;2.25;1.00;;;;;11.41;55.97;102418.00;5094460;27;46302;-75
2022/02/07 12:43:35;;;;;;;;;2.75;2.00;;;;;10.78;56.23;102290.66;5095954;27;45993;-75
2022/02/07 12:46:07;;;;;;;;;2.00;1.00;;;;;11.45;56.10;102385.78;5095876;27;45378;-76
2022/02/07 12:48:36;;;;;;;;;2.00;1.25;;;;;11.63;55.70;102408.81;5095970;27;46056;-75
2022/02/07 12:51:02;;;;;;;;;2.50;2.00;;;;;11.59;56.02;102374.31;5093827;27;45551;-75
2022/02/07 12:53:29;;;;;;;;;2.25;2.00;;;;;12.16;55.27;102423.19;5095831;27;45843;-76
2022/02/07 12:55:57;;;;;;;;;3.00;2.00;;;;;12.45;55.24;102423.84;5096110;27;45616;-76
2022/02/07 12:58:24;;;;;;;;;2.75;2.25;;;;;12.03;54.98;102302.13;5094696;27;45788;-75
2022/02/07 13:00:50;;;;;;;;;2.75;2.00;;;;;12.08;54.64;102301.53;5095685;27;45488;-76
2022/02/07 13:03:15;;;;;;;;;3.25;3.25;;;;;12.25;55.37;102291.88;5095949;27;45480;-85
2022/02/07 13:05:44;;;;;;;;;2.00;2.00;;;;;13.01;53.67;102362.63;5096337;27;45489;-84
2022/02/07 13:08:14;;;;;;;;;3.75;3.75;;;;;13.84;54.11;102333.22;5096401;27;45500;-83
2022/02/07 13:10:39;;;;;;;;;4.50;3.00;;;;;15.38;52.20;102360.31;5096164;27;46244;-85
2022/02/07 13:13:27;;;;;;;;;3.50;3.50;;;;;15.93;50.46;102313.03;5095735;27;45350;-86
2022/02/07 13:15:53;;;;;;;;;3.75;2.75;;;;;16.71;49.02;102341.53;5096449;27;45362;-85
2022/02/07 13:18:21;;;;;;;;;5.50;4.75;;;;;17.98;49.18;102374.97;5096422;27;45463;-83
2022/02/07 13:20:46;;;;;;;;;4.25;4.25;;;;;19.48;46.74;102369.31;5096213;27;46161;-86
2022/02/07 13:23:17;;;;;;;;;3.00;2.25;;;;;20.54;44.52;102394.00;5096349;27;45414;-87
2022/02/07 13:25:50;;;;;;;;;3.00;2.00;;;;;20.66;42.40;102321.19;5096022;27;45460;-86
2022/02/07 13:28:27;;;;;;;;;5.00;3.00;;;;;20.94;40.83;102321.69;5095624;27;45456;-80
2022/02/07 13:30:55;;;;;;;;;2.75;2.75;;;;;20.74;41.28;102283.88;5095623;27;45291;-85
2022/02/07 13:33:22;;;;;;;;;3.50;1.50;;;;;21.36;41.19;102393.72;5096164;27;45821;-85
2022/02/07 13:35:52;;;;;;;;;5.00;4.00;;;;;21.34;40.51;102377.66;5096363;27;45487;-81
2022/02/07 13:38:19;;;;;;;;;3.00;3.00;;;;;21.50;40.29;102399.28;5096458;27;45306;-82
2022/02/07 13:40:46;;;;;;;;;2.75;2.75;;;;;21.98;38.77;102404.50;5095989;27;45507;-89
2022/02/07 13:43:19;;;;;;;;;4.00;3.00;;;;;21.54;38.00;102344.97;5095435;27;45908;-87
2022/02/07 13:45:52;;;;;;;;;2.00;1.25;;;;;21.37;38.23;102424.94;5095986;27;45462;-87
2022/02/07 13:48:19;;;;;;;;;2.00;1.75;;;;;19.81;38.09;102331.00;5096128;27;45486;-86
2022/02/07 13:50:48;;;;;;;;;2.00;2.00;;;;;19.05;38.98;102365.59;5095625;27;46393;-87
2022/02/07 13:53:17;;;;;;;;;2.00;2.00;;;;;18.53;39.71;102302.94;5095409;27;45914;-86
2022/02/07 13:55:53;;;;;;;;;2.00;2.00;;;;;19.65;39.67;102390.19;5095508;27;45495;-85
2022/02/07 13:58:34;;;;;;;;;2.00;1.25;;;;;19.31;38.76;102370.69;5094404;27;45431;-84
2022/02/07 14:01:06;;;;;;;;;3.75;2.75;;;;;18.43;38.80;102361.22;5095111;27;45466;-86
2022/02/07 14:03:38;;;;;;;;;0.50;0.50;;;;;18.90;39.44;102414.91;5095193;27;45409;-87
2022/02/07 14:06:16;;;;;;;;;1.25;1.25;;;;;18.69;39.37;102356.63;5095380;27;45480;-87
2022/02/07 14:08:51;;;;;;;;;3.00;3.00;;;;;18.63;39.16;102317.41;5095147;27;45659;-79
2022/02/07 14:11:29;;;;;;;;;3.75;3.00;;;;;17.80;39.30;102298.19;5094756;27;45337;-85
2022/02/07 14:13:59;;;;;;;;;3.00;2.00;;;;;17.18;40.16;102318.34;5095254;27;45842;-85
2022/02/07 14:16:26;;;;;;;;;3.00;2.00;;;;;17.03;40.22;102388.72;5095254;27;45451;-84
2022/02/07 14:18:53;;;;;;;;;3.25;2.50;;;;;16.20;41.27;102344.97;5095265;27;45511;-86
2022/02/07 14:21:20;;;;;;;;;3.00;3.00;;;;;15.36;41.80;102285.13;5095355;27;46236;-87
2022/02/07 14:23:54;;;;;;;;;2.00;2.00;;;;;15.33;43.01;102368.06;5094394;27;46052;-78
2022/02/07 14:26:21;;;;;;;;;3.00;2.00;;;;;14.78;43.05;102335.69;5094053;27;45487;-79